Time;durP1;ratioP1;P1;durP2;ratioP2;P2;SDS_P1;SDS_P2;PMS_P1;PMS_P2;Temp;Humidity;BMP_temperature;BMP_pressure;BME280_temperature;BME280_humidity;BME280_pressure;Samples;Min_cycle;Max_cycle;Signal;HPM_P1;HPM_P2
2020/12/28 00:01:31;;;;;;;10.50;4.60;;;;;;;11.69;81.51;98894.41;5036937;28;20032;-80
2020/12/28 00:03:57;;;;;;;7.18;4.85;;;;;;;10.98;81.09;98784.84;5054625;28;20049;-78
2020/12/28 00:06:22;;;;;;;7.00;4.40;;;;;;;11.60;81.05;98873.66;5036869;28;20780;-79
2020/12/28 00:08:48;;;;;;;6.60;3.83;;;;;;;11.46;80.68;98852.47;5036875;28;20029;-80
2020/12/28 00:11:17;;;;;;;7.78;4.25;;;;;;;11.08;80.83;98801.97;5054426;28;20517;-78
2020/12/28 00:13:42;;;;;;;7.50;5.00;;;;;;;11.68;80.46;98890.16;5054494;28;20013;-79
2020/12/28 00:16:08;;;;;;;5.88;3.50;;;;;;;11.71;81.03;98896.84;5061350;23;20128;-78
2020/12/28 00:18:33;;;;;;;6.10;3.70;;;;;;;11.48;80.12;98852.28;5036875;28;20031;-79
2020/12/28 00:20:58;;;;;;;7.10;4.10;;;;;;;11.27;80.32;98834.75;5054525;28;20052;-81
2020/12/28 00:23:24;;;;;;;5.50;3.83;;;;;;;11.64;80.12;98899.50;5036567;28;20025;-81
2020/12/28 00:25:49;;;;;;;6.28;4.00;;;;;;;11.68;79.70;98899.91;5036743;28;20025;-78
2020/12/28 00:28:14;;;;;;;5.88;3.60;;;;;;;11.34;80.49;98851.44;5054278;28;20151;-80
2020/12/28 00:30:40;;;;;;;11.10;4.75;;;;;;;11.62;80.05;98904.16;5054345;28;20031;-79
2020/12/28 00:33:05;;;;;;;6.65;3.70;;;;;;;11.22;80.51;98845.09;5054216;28;20347;-81
2020/12/28 00:35:31;;;;;;;8.05;3.90;;;;;;;11.06;80.46;98821.66;5054498;28;20147;-79
2020/12/28 00:37:56;;;;;;;6.15;4.00;;;;;;;11.59;79.91;98903.75;5054352;28;20035;-81
2020/12/28 00:40:21;;;;;;;6.22;4.47;;;;;;;11.49;80.18;98892.75;5036509;28;20125;-79
2020/12/28 00:42:47;;;;;;;4.90;3.53;;;;;;;10.93;80.82;98803.13;5054215;28;20054;-80
2020/12/28 00:45:12;;;;;;;5.00;3.85;;;;;;;11.60;80.45;98908.84;5054026;28;20029;-80
2020/12/28 00:47:38;;;;;;;6.22;4.00;;;;;;;11.08;80.05;98832.84;5054153;28;20028;-80
2020/12/28 00:50:07;;;;;;;7.07;4.07;;;;;;;11.52;80.11;98918.78;5036574;28;20082;-81
2020/12/28 00:52:32;;;;;;;7.82;4.07;;;;;;;11.01;79.85;98818.81;5036538;28;20517;-81
2020/12/28 00:54:58;;;;;;;6.13;3.80;;;;;;;11.21;80.29;98846.13;5058293;28;20071;-79
2020/12/28 00:57:23;;;;;;;6.90;4.20;;;;;;;11.65;79.73;98911.69;5040130;28;20021;-82
2020/12/28 00:59:48;;;;;;;4.25;3.80;;;;;;;11.66;79.96;98909.88;5057936;28;20359;-82
2020/12/28 01:02:14;;;;;;;3.85;3.50;;;;;;;11.36;80.25;98872.38;5057851;28;20389;-81
2020/12/28 01:04:40;;;;;;;5.22;3.78;;;;;;;11.63;79.95;98934.88;5057807;28;20029;-80
2020/12/28 01:07:05;;;;;;;6.07;4.03;;;;;;;11.06;80.41;98811.09;5057906;28;20029;-81
2020/12/28 01:09:31;;;;;;;5.18;4.00;;;;;;;11.37;80.41;98860.78;5040192;28;20029;-82
2020/12/28 01:11:57;;;;;;;4.40;3.80;;;;;;;11.60;79.89;98902.75;5057704;28;20051;-83
2020/12/28 01:14:22;;;;;;;5.97;4.05;;;;;;;11.32;79.91;98856.13;5039906;28;20021;-82
2020/12/28 01:16:48;;;;;;;5.22;3.95;;;;;;;11.42;79.63;98863.66;5057392;28;20080;-83
2020/12/28 01:19:13;;;;;;;6.45;4.63;;;;;;;11.05;80.13;98817.38;5057488;28;20028;-82
2020/12/28 01:21:38;;;;;;;8.57;4.97;;;;;;;11.21;80.39;98832.09;5057562;28;20028;-83
2020/12/28 01:24:04;;;;;;;9.07;4.55;;;;;;;11.27;79.84;98866.47;5057461;28;20041;-82
2020/12/28 01:26:29;;;;;;;6.25;3.80;;;;;;;11.39;79.82;98861.41;5057323;28;20048;-81
2020/12/28 01:28:55;;;;;;;7.40;4.90;;;;;;;11.18;80.00;98835.13;5057489;28;20406;-81
2020/12/28 01:31:20;;;;;;;6.63;4.20;;;;;;;10.18;80.67;98675.50;5057282;28;20025;-83
2020/12/28 01:33:46;;;;;;;6.80;5.15;;;;;;;11.43;80.48;98883.78;5039555;28;20024;-83
2020/12/28 01:36:11;;;;;;;8.30;5.00;;;;;;;11.21;80.27;98824.97;5057191;28;20028;-82
2020/12/28 01:38:36;;;;;;;10.18;5.25;;;;;;;11.65;80.53;98889.72;5057189;28;20017;-80
2020/12/28 01:41:02;;;;;;;6.63;5.32;;;;;;;11.26;80.17;98816.47;5039461;28;20044;-82
2020/12/28 01:43:29;;;;;;;7.05;5.13;;;;;;;11.17;79.76;98797.34;5057013;28;20104;-82
2020/12/28 01:45:55;;;;;;;5.63;4.65;;;;;;;11.70;80.05;98887.28;5057173;28;20428;-80
2020/12/28 01:48:20;;;;;;;7.50;5.38;;;;;;;11.70;80.73;98871.44;5039294;28;20155;-81
2020/12/28 01:50:46;;;;;;;8.63;4.95;;;;;;;11.64;80.38;98883.63;5057169;28;20021;-82
2020/12/28 01:53:11;;;;;;;8.18;5.78;;;;;;;11.08;80.38;98785.28;5056965;28;20029;-83
2020/12/28 01:55:38;;;;;;;7.88;5.28;;;;;;;11.38;80.42;98836.00;5056895;28;20082;-81
2020/12/28 01:58:03;;;;;;;10.85;6.40;;;;;;;11.68;80.28;98869.00;5056942;28;20028;-82
2020/12/28 02:00:29;;;;;;;10.55;6.60;;;;;;;11.03;80.43;98761.31;5056695;28;20024;-81
2020/12/28 02:02:54;;;;;;;12.27;6.43;;;;;;;11.67;80.59;98837.47;5039052;28;20037;-82
2020/12/28 02:05:20;;;;;;;10.70;5.60;;;;;;;10.85;80.27;98708.25;5055450;28;20036;-80
2020/12/28 02:07:46;;;;;;;9.18;6.22;;;;;;;11.65;81.20;98853.53;5056711;28;20409;-80
2020/12/28 02:10:11;;;;;;;9.60;6.38;;;;;;;11.65;80.79;98860.66;5056619;28;20082;-83
2020/12/28 02:12:38;;;;;;;7.65;5.10;;;;;;;11.64;80.54;98861.66;5056587;28;20029;-82
2020/12/28 02:15:04;;;;;;;6.97;4.57;;;;;;;11.63;80.73;98847.63;5038899;28;20446;-82
2020/12/28 02:17:30;;;;;;;7.65;5.43;;;;;;;11.07;80.84;98763.34;5056169;28;20447;-83
2020/12/28 02:19:55;;;;;;;10.90;5.82;;;;;;;11.61;80.76;98870.81;5038991;28;20028;-82
2020/12/28 02:22:21;;;;;;;7.25;5.32;;;;;;;10.79;81.00;98709.84;5038730;28;20021;-83
2020/12/28 02:24:46;;;;;;;5.78;4.32;;;;;;;11.44;80.67;98806.94;5056349;28;20083;-82
2020/12/28 02:27:12;;;;;;;10.52;6.00;;;;;;;11.58;80.17;98831.56;5056287;28;20502;-81
2020/12/28 02:29:37;;;;;;;9.73;6.18;;;;;;;11.37;80.22;98808.75;5038602;28;20021;-80
2020/12/28 02:32:03;;;;;;;7.65;5.10;;;;;;;10.70;80.27;98690.75;5056334;28;20032;-82
2020/12/28 02:34:28;;;;;;;7.70;5.25;;;;;;;11.12;80.82;98771.47;5038365;28;20424;-83
2020/12/28 02:36:53;;;;;;;9.85;6.68;;;;;;;10.99;80.57;98734.47;5056205;28;20107;-82
2020/12/28 02:39:19;;;;;;;8.82;6.03;;;;;;;11.62;80.67;98826.69;5056042;28;20032;-80
2020/12/28 02:41:44;;;;;;;7.70;5.68;;;;;;;11.19;80.24;98755.66;5056217;28;20025;-81
2020/12/28 02:44:09;;;;;;;7.40;4.72;;;;;;;11.52;80.52;98805.94;5038121;28;20339;-83
2020/12/28 02:46:35;;;;;;;9.70;5.15;;;;;;;10.98;80.06;98716.19;5038332;28;20024;-80
2020/12/28 02:49:00;;;;;;;8.00;4.63;;;;;;;11.61;80.24;98825.06;5055932;28;20099;-79
2020/12/28 02:51:26;;;;;;;6.63;4.28;;;;;;;11.59;80.17;98822.59;5055750;28;20398;-79
2020/12/28 02:53:51;;;;;;;10.35;4.15;;;;;;;11.43;80.64;98800.03;5055852;28;20013;-82
2020/12/28 02:56:17;;;;;;;7.03;4.50;;;;;;;11.40;80.54;98816.28;5055756;28;20041;-78
2020/12/28 02:58:42;;;;;;;8.70;4.28;;;;;;;11.20;80.95;98764.41;5055830;28;20423;-80
2020/12/28 03:01:07;;;;;;;9.05;4.10;;;;;;;11.25;80.62;98783.13;5055546;28;20439;-80
2020/12/28 03:03:33;;;;;;;9.57;3.83;;;;;;;11.15;80.71;98767.66;5055558;28;20075;-82
2020/12/28 03:05:58;;;;;;;5.65;3.20;;;;;;;11.19;80.26;98782.09;5055585;28;20025;-80
2020/12/28 03:08:24;;;;;;;6.13;3.30;;;;;;;11.00;80.22;98774.91;5037683;28;20027;-81
2020/12/28 03:10:49;;;;;;;4.88;3.00;;;;;;;10.83;80.51;98735.66;5037959;28;20029;-80
2020/12/28 03:13:14;;;;;;;7.88;3.80;;;;;;;11.17;79.73;98792.03;5037687;28;20107;-81
2020/12/28 03:15:40;;;;;;;5.05;3.00;;;;;;;11.58;80.04;98858.00;5055146;28;20029;-80
2020/12/28 03:18:05;;;;;;;6.32;3.78;;;;;;;11.51;79.88;98838.66;5055268;28;20048;-79
2020/12/28 03:20:31;;;;;;;4.82;3.05;;;;;;;11.38;79.63;98825.44;5037697;28;20024;-79
2020/12/28 03:22:56;;;;;;;7.85;3.47;;;;;;;11.61;79.17;98847.00;5037461;28;20049;-79
2020/12/28 03:25:21;;;;;;;9.48;4.00;;;;;;;11.07;79.93;98770.44;5055084;28;20031;-78
2020/12/28 03:27:47;;;;;;;7.88;3.45;;;;;;;11.59;79.32;98853.53;5037637;28;20439;-78
2020/12/28 03:30:12;;;;;;;5.15;3.55;;;;;;;11.43;79.65;98825.63;5037432;28;20082;-79
2020/12/28 03:32:37;;;;;;;7.00;4.35;;;;;;;11.15;79.35;98786.16;5055129;28;20415;-77
2020/12/28 03:35:03;;;;;;;7.38;3.90;;;;;;;11.74;79.60;98875.31;5055036;28;20028;-78
2020/12/28 03:37:28;;;;;;;6.15;4.10;;;;;;;11.22;79.34;98799.38;5054884;28;20032;-79
2020/12/28 03:39:53;;;;;;;8.45;4.30;;;;;;;10.88;78.62;98731.59;5054918;28;20024;-77
2020/12/28 03:42:19;;;;;;;4.60;3.50;;;;;;;11.65;79.52;98869.41;5054866;28;20025;-78
2020/12/28 03:44:44;;;;;;;5.88;3.78;;;;;;;11.22;79.34;98808.13;5054835;28;20114;-77
2020/12/28 03:47:09;;;;;;;6.95;4.00;;;;;;;11.24;79.24;98798.16;5054726;28;20025;-78
2020/12/28 03:49:35;;;;;;;7.55;4.10;;;;;;;11.72;79.72;98877.34;5054913;28;20028;-77
2020/12/28 03:52:00;;;;;;;10.93;5.53;;;;;;;11.28;79.10;98817.88;5054863;28;20106;-78
2020/12/28 03:54:25;;;;;;;4.20;3.15;;;;;;;11.71;78.73;98867.78;5037014;28;20021;-78
2020/12/28 03:56:51;;;;;;;7.97;3.83;;;;;;;11.68;79.02;98841.72;5054689;28;20055;-77
2020/12/28 03:59:16;;;;;;;10.32;4.40;;;;;;;11.69;79.51;98828.31;5054584;28;20025;-78
2020/12/28 04:01:41;;;;;;;9.55;3.50;;;;;;;11.26;79.77;98790.84;5036912;28;20462;-78
2020/12/28 04:04:07;;;;;;;9.10;4.32;;;;;;;10.93;78.82;98743.19;5054575;28;20058;-77
2020/12/28 04:06:32;;;;;;;6.95;4.47;;;;;;;11.62;79.67;98867.16;5054486;28;20098;-79
2020/12/28 04:08:57;;;;;;;8.60;4.63;;;;;;;11.40;79.65;98829.50;5054492;28;20029;-77
2020/12/28 04:11:23;;;;;;;9.18;3.88;;;;;;;11.27;79.44;98815.44;5054407;28;20396;-78
2020/12/28 04:13:48;;;;;;;8.73;4.40;;;;;;;11.31;79.85;98817.47;5054520;28;20021;-77
2020/12/28 04:16:15;;;;;;;8.45;4.10;;;;;;;11.60;78.89;98871.00;5054289;28;20554;-78
2020/12/28 04:18:40;;;;;;;7.38;4.32;;;;;;;11.40;79.14;98866.50;5054700;28;20032;-77
2020/12/28 04:21:05;;;;;;;7.57;4.30;;;;;;;11.52;79.42;98865.91;5054420;28;20359;-77
2020/12/28 04:23:31;;;;;;;6.70;3.80;;;;;;;11.23;79.58;98830.88;5054221;28;20102;-79
2020/12/28 04:25:56;;;;;;;8.05;3.92;;;;;;;11.35;79.15;98852.25;5054314;28;20029;-77
2020/12/28 04:28:22;;;;;;;7.07;4.03;;;;;;;11.17;79.39;98818.47;5055521;28;20414;-77
2020/12/28 04:30:47;;;;;;;6.85;3.50;;;;;;;11.53;79.48;98862.25;5058534;28;20032;-77
2020/12/28 04:33:12;;;;;;;6.20;2.88;;;;;;;11.37;79.27;98853.69;5040606;28;20029;-79
2020/12/28 04:35:38;;;;;;;8.88;3.65;;;;;;;11.00;78.66;98788.94;5058598;28;20024;-76
2020/12/28 04:38:03;;;;;;;8.50;3.85;;;;;;;11.45;79.01;98861.44;5058485;28;20021;-78
2020/12/28 04:40:29;;;;;;;9.60;4.40;;;;;;;11.45;79.09;98864.06;5058211;28;20517;-77
2020/12/28 04:42:56;;;;;;;7.95;3.10;;;;;;;11.18;79.27;98822.75;5040611;28;20083;-77
2020/12/28 04:45:21;;;;;;;10.07;3.22;;;;;;;11.30;78.79;98834.34;5040393;28;20047;-77
2020/12/28 04:47:47;;;;;;;10.98;4.15;;;;;;;11.24;78.53;98832.50;5058204;28;20423;-79
2020/12/28 04:50:14;;;;;;;8.10;3.47;;;;;;;11.15;78.30;98820.50;5058104;28;20086;-76
2020/12/28 04:52:40;;;;;;;6.50;2.95;;;;;;;11.27;78.51;98840.03;5058066;28;20115;-78
2020/12/28 04:55:07;;;;;;;5.43;2.85;;;;;;;10.78;78.77;98761.84;5058055;28;20108;-76
2020/12/28 04:57:33;;;;;;;7.22;3.47;;;;;;;11.46;77.63;98860.41;5057919;28;20049;-77
2020/12/28 04:59:58;;;;;;;7.80;3.70;;;;;;;11.24;78.34;98835.16;5057945;28;20404;-76
2020/12/28 05:02:24;;;;;;;8.45;3.78;;;;;;;11.59;77.81;98895.81;5057743;28;20033;-78
2020/12/28 05:04:49;;;;;;;12.10;4.50;;;;;;;11.60;78.26;98903.56;5057865;28;20107;-76
2020/12/28 05:07:15;;;;;;;8.70;4.75;;;;;;;11.63;77.95;98897.06;5057719;28;20054;-77
2020/12/28 05:09:40;;;;;;;13.57;5.90;;;;;;;11.62;77.89;98896.22;5057794;28;20025;-77
2020/12/28 05:12:06;;;;;;;14.63;6.75;;;;;;;11.65;77.69;98900.31;5057636;28;20021;-78
2020/12/28 05:14:35;;;;;;;13.48;6.32;;;;;;;11.64;77.70;98896.84;5057611;28;20032;-76
2020/12/28 05:17:08;;;;;;;16.83;7.78;;;;;;;11.49;77.76;98882.19;5039837;28;20071;-77
2020/12/28 05:19:35;;;;;;;14.07;7.30;;;;;;;11.64;77.54;98902.13;5039925;28;20028;-77
2020/12/28 05:22:00;;;;;;;12.75;6.70;;;;;;;11.26;77.73;98859.56;5057585;28;20439;-76
2020/12/28 05:24:26;;;;;;;12.73;7.35;;;;;;;11.37;77.64;98872.19;5057357;28;20072;-77
2020/12/28 05:26:53;;;;;;;14.63;7.65;;;;;;;11.65;77.41;98903.75;5039747;28;20032;-77
2020/12/28 05:29:23;;;;;;;10.60;6.57;;;;;;;11.66;77.74;98917.81;5057329;28;20025;-77
2020/12/28 05:31:51;;;;;;;14.45;6.40;;;;;;;11.65;77.39;98924.09;5039747;28;20029;-76
2020/12/28 05:34:26;;;;;;;13.85;6.28;;;;;;;11.64;77.68;98938.34;5057272;28;20017;-78
2020/12/28 05:36:55;;;;;;;13.10;6.75;;;;;;;11.60;77.58;98940.56;5057387;28;20107;-78
2020/12/28 05:39:23;;;;;;;12.13;5.25;;;;;;;11.59;77.23;98941.59;5056914;28;20431;-76
2020/12/28 05:41:57;;;;;;;9.20;4.97;;;;;;;11.22;77.82;98897.97;5057200;28;20176;-78
2020/12/28 05:44:26;;;;;;;6.75;3.92;;;;;;;11.55;78.07;98939.53;5039319;28;20512;-77
2020/12/28 05:47:02;;;;;;;9.00;4.65;;;;;;;11.52;78.02;98946.03;5057097;28;20025;-76
2020/12/28 05:49:33;;;;;;;9.70;5.03;;;;;;;11.45;78.11;98951.31;5056890;28;20092;-77
2020/12/28 05:52:00;;;;;;;7.10;3.83;;;;;;;11.41;78.49;98939.50;5056952;28;20033;-77
2020/12/28 05:54:28;;;;;;;9.45;4.57;;;;;;;11.35;78.82;98923.63;5056840;28;20025;-77
2020/12/28 05:56:55;;;;;;;7.82;4.15;;;;;;;11.38;78.28;98933.78;5056840;28;20056;-77
2020/12/28 05:59:22;;;;;;;12.50;6.72;;;;;;;11.35;78.83;98936.84;5056873;28;20024;-77
2020/12/28 06:01:48;;;;;;;14.30;9.25;;;;;;;10.73;78.42;98840.03;5056802;28;20017;-75
2020/12/28 06:04:15;;;;;;;19.17;12.50;;;;;;;11.15;78.16;98918.25;5056547;28;20021;-76
2020/12/28 06:06:43;;;;;;;21.23;10.80;;;;;;;11.30;78.95;98944.53;5056583;28;20099;-77
2020/12/28 06:09:09;;;;;;;15.90;10.57;;;;;;;11.28;78.85;98952.66;5039040;28;20021;-76
2020/12/28 06:11:35;;;;;;;14.65;10.00;;;;;;;11.19;78.94;98937.16;5038857;28;20108;-76
2020/12/28 06:14:18;;;;;;;19.08;11.70;;;;;;;11.17;78.70;98965.63;5039008;28;20063;-76
2020/12/28 06:16:44;;;;;;;20.42;13.18;;;;;;;11.22;78.57;98950.81;5056474;28;20045;-77
2020/12/28 06:19:20;;;;;;;23.10;14.13;;;;;;;11.20;78.89;98966.03;5056462;28;20056;-76
2020/12/28 06:21:46;;;;;;;21.20;15.10;;;;;;;10.88;78.99;98911.19;5038866;28;20494;-76
2020/12/28 06:24:11;;;;;;;26.13;17.25;;;;;;;11.12;78.94;98942.41;5038729;28;20115;-75
2020/12/28 06:26:37;;;;;;;22.38;15.05;;;;;;;10.83;78.80;98902.03;5056556;28;20105;-76
2020/12/28 06:29:06;;;;;;;24.83;16.05;;;;;;;11.00;79.38;98938.69;5056470;28;20021;-76
2020/12/28 06:31:32;;;;;;;21.33;15.73;;;;;;;11.04;79.12;98938.09;5056479;28;20100;-76
2020/12/28 06:33:58;;;;;;;16.33;11.43;;;;;;;11.25;78.63;98974.19;5056342;28;20412;-76
2020/12/28 06:36:24;;;;;;;25.05;16.35;;;;;;;11.10;78.95;98960.28;5056263;28;20032;-76
2020/12/28 06:38:59;;;;;;;23.02;15.05;;;;;;;10.72;79.22;98897.28;5056254;28;20056;-81
2020/12/28 06:41:30;;;;;;;19.23;14.23;;;;;;;10.92;79.49;98926.44;5056139;28;20033;-80
2020/12/28 06:44:01;;;;;;;24.25;15.75;;;;;;;11.35;79.23;98990.50;5038311;28;20036;-80
2020/12/28 06:46:27;;;;;;;24.40;16.80;;;;;;;11.30;79.11;98978.88;5038247;28;20032;-80
2020/12/28 06:48:53;;;;;;;26.75;17.23;;;;;;;10.78;78.62;98891.22;5055946;28;20029;-81
2020/12/28 06:51:22;;;;;;;24.00;16.00;;;;;;;11.39;78.77;98986.44;5055377;28;20336;-81
2020/12/28 06:53:52;;;;;;;20.80;15.25;;;;;;;11.28;79.36;98970.34;5038132;28;20017;-81
2020/12/28 06:56:17;;;;;;;24.58;16.95;;;;;;;11.25;78.95;98968.09;5055737;28;20033;-81
2020/12/28 06:58:43;;;;;;;25.33;15.00;;;;;;;11.06;79.29;98943.19;5038087;28;20021;-81
2020/12/28 07:01:08;;;;;;;27.75;21.65;;;;;;;10.70;79.10;98878.19;5037963;28;20025;-82
2020/12/28 07:03:33;;;;;;;26.45;17.90;;;;;;;11.07;78.51;98929.78;5055474;28;20033;-82
2020/12/28 07:06:06;;;;;;;28.50;19.33;;;;;;;11.38;78.99;98979.53;5055577;28;20115;-79
2020/12/28 07:08:39;;;;;;;26.85;17.60;;;;;;;11.33;78.64;98966.09;5055444;28;20036;-80
2020/12/28 07:11:05;;;;;;;24.17;14.98;;;;;;;11.48;78.66;98989.75;5037903;28;20063;-82
2020/12/28 07:13:32;;;;;;;20.13;13.63;;;;;;;11.53;78.61;98989.97;5055443;28;20021;-82
2020/12/28 07:16:05;;;;;;;26.67;14.48;;;;;;;11.08;78.54;98912.09;5037559;28;20035;-80
2020/12/28 07:18:30;;;;;;;23.67;13.75;;;;;;;11.17;78.29;98916.22;5055352;28;20043;-81
2020/12/28 07:21:00;;;;;;;19.90;13.43;;;;;;;11.03;78.58;98880.16;5055485;28;20359;-82
2020/12/28 07:23:27;;;;;;;12.48;9.13;;;;;;;11.32;77.84;98942.50;5055202;28;20033;-80
2020/12/28 07:26:10;;;;;;;19.77;11.27;;;;;;;11.32;77.91;98929.28;5037698;28;20025;-79
2020/12/28 07:28:37;;;;;;;17.88;11.70;;;;;;;11.63;77.79;98977.19;5055069;28;20029;-80
2020/12/28 07:31:04;;;;;;;13.40;10.02;;;;;;;11.56;77.98;98972.91;5037604;28;20025;-80
2020/12/28 07:33:31;;;;;;;17.33;10.50;;;;;;;11.13;77.38;98901.75;5054940;28;20027;-78
2020/12/28 07:36:07;;;;;;;14.80;10.25;;;;;;;11.71;76.63;98994.72;5055069;28;20074;-79
2020/12/28 07:38:32;;;;;;;14.10;10.27;;;;;;;11.77;77.04;98984.19;5037207;28;20021;-79
2020/12/28 07:40:59;;;;;;;18.38;11.80;;;;;;;11.13;76.80;98872.69;5037184;28;20359;-80
2020/12/28 07:43:24;;;;;;;16.92;10.15;;;;;;;11.43;76.91;98924.25;5054651;28;20024;-80
2020/12/28 07:45:50;;;;;;;17.10;10.85;;;;;;;11.19;76.37;98885.13;5055012;28;20035;-81
2020/12/28 07:48:20;;;;;;;15.73;10.35;;;;;;;11.61;76.34;98954.59;5054898;28;20098;-82
2020/12/28 07:50:54;;;;;;;14.13;9.95;;;;;;;11.81;76.56;98981.13;5054797;28;20024;-79
2020/12/28 07:53:30;;;;;;;16.92;10.65;;;;;;;11.95;76.32;98981.00;5054607;28;20071;-80
2020/12/28 07:56:03;;;;;;;15.82;11.38;;;;;;;12.03;76.30;98993.22;5054702;28;20111;-82
2020/12/28 07:58:54;;;;;;;14.52;10.10;;;;;;;11.87;75.66;98962.63;5054579;28;20025;-80
2020/12/28 08:01:34;;;;;;;15.32;10.35;;;;;;;12.17;75.43;98989.56;5036886;28;20316;-81
2020/12/28 08:04:01;;;;;;;15.13;10.02;;;;;;;11.94;75.70;98939.69;5053595;28;20428;-78
2020/12/28 08:06:28;;;;;;;13.45;9.40;;;;;;;12.35;75.74;98984.50;5054333;28;20113;-79
2020/12/28 08:09:01;;;;;;;9.65;6.78;;;;;;;12.13;75.45;98937.25;5036875;28;20052;-79
2020/12/28 08:11:29;;;;;;;7.95;4.65;;;;;;;12.59;74.21;98983.06;5054380;28;20355;-77
2020/12/28 08:13:55;;;;;;;6.70;4.47;;;;;;;12.60;74.66;98987.34;5054471;28;20037;-78
2020/12/28 08:16:21;;;;;;;10.93;6.20;;;;;;;12.16;74.08;98897.16;5054076;28;20091;-80
2020/12/28 08:18:53;;;;;;;10.52;5.35;;;;;;;12.79;73.86;98985.75;5054439;28;20056;-80
2020/12/28 08:21:20;;;;;;;7.18;4.82;;;;;;;12.54;73.83;98935.22;5054374;28;20052;-80
2020/12/28 08:24:04;;;;;;;8.13;5.40;;;;;;;12.83;73.57;98999.38;5054307;28;20025;-81
2020/12/28 08:26:30;;;;;;;8.68;5.10;;;;;;;12.83;73.57;98983.50;5036573;28;20032;-82
2020/12/28 08:29:00;;;;;;;12.00;6.38;;;;;;;12.88;73.36;98973.09;5054454;28;20033;-80
2020/12/28 08:31:25;;;;;;;11.15;6.82;;;;;;;12.95;73.55;98969.41;5054211;28;20519;-82
2020/12/28 08:34:09;;;;;;;11.35;6.13;;;;;;;13.04;72.62;98964.69;5036823;28;20025;-79
2020/12/28 08:36:37;;;;;;;10.50;5.75;;;;;;;13.01;72.04;98965.13;5054210;28;20116;-79
2020/12/28 08:39:14;;;;;;;9.63;6.13;;;;;;;12.83;72.04;98935.81;5036603;28;20324;-79
2020/12/28 08:41:55;;;;;;;9.60;5.13;;;;;;;13.02;71.43;98961.44;5054251;28;20420;-79
2020/12/28 08:44:40;;;;;;;10.07;4.93;;;;;;;13.12;71.50;98990.16;5053979;28;20017;-79
2020/12/28 08:47:12;;;;;;;8.05;5.10;;;;;;;12.93;71.21;98958.19;5054206;28;20033;-79
2020/12/28 08:49:41;;;;;;;8.30;5.47;;;;;;;12.98;71.01;98965.53;5054010;28;20032;-77
2020/12/28 08:52:14;;;;;;;12.50;5.45;;;;;;;13.11;70.93;98977.94;5054266;28;20025;-79
2020/12/28 08:54:40;;;;;;;12.48;6.88;;;;;;;13.13;70.89;98975.88;5053909;28;20419;-79
2020/12/28 08:57:16;;;;;;;10.07;6.30;;;;;;;12.59;70.70;98886.94;5054017;28;20017;-79
2020/12/28 08:59:42;;;;;;;8.63;5.68;;;;;;;13.00;71.00;98945.75;5054046;28;20028;-78
2020/12/28 09:02:14;;;;;;;11.50;6.40;;;;;;;12.92;70.78;98955.75;5053801;28;20083;-79
2020/12/28 09:04:40;;;;;;;9.90;6.35;;;;;;;12.89;70.41;98937.63;5053807;28;20021;-79
2020/12/28 09:07:05;;;;;;;10.05;6.07;;;;;;;13.19;70.47;98970.59;5053949;28;20029;-79
2020/12/28 09:09:30;;;;;;;11.77;6.50;;;;;;;13.24;70.25;98967.31;5053720;28;20105;-79
2020/12/28 09:11:56;;;;;;;11.35;7.10;;;;;;;12.72;69.45;98886.94;5053691;28;20094;-78
2020/12/28 09:14:22;;;;;;;9.00;5.38;;;;;;;13.26;69.57;98954.66;5037260;28;20477;-78
2020/12/28 09:16:47;;;;;;;7.75;4.95;;;;;;;13.15;69.38;98921.66;5039645;28;20041;-79
2020/12/28 09:19:13;;;;;;;10.15;5.38;;;;;;;13.34;69.21;98951.78;5057523;28;20075;-80
2020/12/28 09:21:38;;;;;;;10.13;5.60;;;;;;;13.25;69.01;98945.09;5039705;28;20020;-80
2020/12/28 09:24:03;;;;;;;10.43;5.82;;;;;;;13.37;68.80;98948.72;5057245;28;20029;-78
2020/12/28 09:26:29;;;;;;;8.60;5.60;;;;;;;13.44;68.71;98946.88;5039621;28;20107;-76
2020/12/28 09:28:54;;;;;;;8.52;5.22;;;;;;;13.07;68.65;98891.91;5057434;28;20021;-77
2020/12/28 09:31:20;;;;;;;10.07;5.68;;;;;;;13.30;68.41;98894.91;5039450;28;20387;-81
2020/12/28 09:33:45;;;;;;;9.05;5.93;;;;;;;13.56;67.88;98926.63;5039474;28;20021;-77
2020/12/28 09:36:17;;;;;;;8.00;5.47;;;;;;;13.69;68.16;98933.69;5057295;28;20363;-79
2020/12/28 09:38:42;;;;;;;9.57;5.25;;;;;;;13.50;67.64;98887.69;5057101;28;20089;-80
2020/12/28 09:41:08;;;;;;;8.75;5.75;;;;;;;13.78;67.89;98932.41;5057160;28;20025;-79
2020/12/28 09:43:33;;;;;;;10.05;4.88;;;;;;;13.77;67.54;98933.44;5056777;28;20091;-80
2020/12/28 09:45:58;;;;;;;7.53;4.80;;;;;;;13.87;67.16;98936.44;5057314;28;20029;-79
2020/12/28 09:48:24;;;;;;;9.07;4.22;;;;;;;13.89;67.08;98934.38;5056916;28;20028;-79
2020/12/28 09:50:49;;;;;;;8.30;4.40;;;;;;;13.55;67.05;98863.97;5056956;28;20107;-79
2020/12/28 09:53:14;;;;;;;7.82;4.75;;;;;;;13.40;67.36;98836.13;5056907;28;20028;-78
2020/12/28 09:55:40;;;;;;;6.70;4.20;;;;;;;13.88;67.38;98903.56;5039055;28;20124;-79
2020/12/28 09:58:05;;;;;;;6.53;3.90;;;;;;;13.49;66.99;98842.81;5056821;28;20031;-79
2020/12/28 10:00:31;;;;;;;8.25;3.65;;;;;;;12.95;67.13;98732.78;5038718;28;20020;-79
2020/12/28 10:02:56;;;;;;;5.43;2.28;;;;;;;14.03;66.00;98881.19;5038895;28;20082;-79
2020/12/28 10:05:21;;;;;;;9.82;4.47;;;;;;;13.65;66.08;98824.53;5056386;28;20028;-77
2020/12/28 10:07:47;;;;;;;6.35;4.32;;;;;;;13.82;65.98;98855.84;5022375;28;20114;-80
2020/12/28 10:10:13;;;;;;;5.05;3.20;;;;;;;13.68;65.41;98810.84;5056520;28;20025;-81
2020/12/28 10:12:38;;;;;;;4.53;2.58;;;;;;;13.50;65.15;98781.59;5056330;28;20035;-79
2020/12/28 10:15:05;;;;;;;4.03;1.80;;;;;;;13.87;64.45;98827.63;5038782;28;20013;-79
2020/12/28 10:17:31;;;;;;;2.75;2.13;;;;;;;13.83;63.54;98818.47;5038531;28;20080;-79
2020/12/28 10:19:57;;;;;;;3.17;1.80;;;;;;;13.29;63.37;98705.03;5056338;28;20381;-79
2020/12/28 10:22:22;;;;;;;2.28;0.80;;;;;;;14.19;61.19;98836.38;5056280;28;20091;-76
2020/12/28 10:24:48;;;;;;;1.92;1.20;;;;;;;13.67;61.29;98765.97;5038479;28;20438;-79
2020/12/28 10:27:13;;;;;;;3.13;1.90;;;;;;;14.20;61.98;98842.50;5037508;28;20029;-78
2020/12/28 10:29:38;;;;;;;2.65;1.17;;;;;;;14.07;61.93;98822.16;5038442;28;20059;-78
2020/12/28 10:32:04;;;;;;;2.42;1.02;;;;;;;14.19;61.55;98832.91;5056102;28;20335;-79
2020/12/28 10:34:29;;;;;;;3.42;1.75;;;;;;;14.21;61.07;98841.47;5056068;28;20024;-78
2020/12/28 10:36:55;;;;;;;3.60;2.00;;;;;;;14.22;61.10;98838.59;5038379;28;20174;-77
2020/12/28 10:39:20;;;;;;;3.63;2.08;;;;;;;13.76;61.05;98762.00;5055907;28;20024;-79
2020/12/28 10:41:46;;;;;;;2.50;1.70;;;;;;;13.56;60.64;98708.31;5055791;28;20566;-81
2020/12/28 10:44:11;;;;;;;2.58;1.10;;;;;;;14.37;60.42;98838.22;5055747;28;20320;-78
2020/12/28 10:46:37;;;;;;;1.95;1.10;;;;;;;13.88;60.07;98744.34;5054669;28;20316;-77
2020/12/28 10:49:07;;;;;;;2.20;1.23;;;;;;;14.36;60.13;98817.22;5052439;28;20056;-77
2020/12/28 10:51:33;;;;;;;2.92;1.48;;;;;;;14.40;58.67;98800.63;5035272;28;20025;-79
2020/12/28 10:53:58;;;;;;;4.18;2.38;;;;;;;14.46;58.86;98823.66;5037846;28;20553;-78
2020/12/28 10:56:28;;;;;;;4.55;1.90;;;;;;;13.85;58.67;98723.56;5049611;28;20021;-78
2020/12/28 10:58:53;;;;;;;3.70;1.60;;;;;;;14.53;58.08;98832.38;5035673;28;20021;-79
2020/12/28 11:01:24;;;;;;;2.75;1.33;;;;;;;14.00;57.37;98736.47;5035553;28;20025;-80
2020/12/28 11:03:51;;;;;;;4.05;1.40;;;;;;;14.53;56.96;98832.38;5049042;28;20033;-79
2020/12/28 11:06:19;;;;;;;3.45;1.65;;;;;;;13.81;57.06;98719.72;5054744;28;20485;-79
2020/12/28 11:08:46;;;;;;;8.00;1.40;;;;;;;14.53;57.27;98842.19;5052969;28;20044;-79
2020/12/28 11:11:11;;;;;;;3.22;1.30;;;;;;;14.40;57.31;98807.78;5054568;28;20355;-79
2020/12/28 11:13:37;;;;;;;3.30;1.63;;;;;;;14.61;56.92;98832.09;5036540;28;20021;-77
2020/12/28 11:16:02;;;;;;;3.05;1.30;;;;;;;14.19;57.34;98774.50;5051314;28;20092;-79
2020/12/28 11:18:28;;;;;;;3.00;1.58;;;;;;;14.25;56.82;98779.72;5053336;28;20060;-80
2020/12/28 11:20:53;;;;;;;1.63;0.90;;;;;;;14.56;56.70;98841.75;5037080;28;20020;-78
2020/12/28 11:23:18;;;;;;;1.38;1.15;;;;;;;14.57;56.43;98828.25;5035763;28;20039;-80
2020/12/28 11:25:44;;;;;;;3.20;1.00;;;;;;;14.74;55.56;98846.25;5051815;28;20025;-79
2020/12/28 11:28:09;;;;;;;1.83;1.15;;;;;;;14.31;55.95;98786.81;5036814;28;20028;-81